Kamas, UT (84036)

9:31 AM MST on December 08, 2016 (GMT -0700)
Beaver Creek at Kamas | | Change Station
Active Advisory: Winter Storm Warning

Elev 6540 ft 40.64 °N, 111.26 °W | Updated 26 seconds ago

Overcast
Overcast
8.6 °F
Feels Like 9 °F
N
0.4
Wind Variable Wind from NW
Gusts 1.3 mph

Today
High -- | Low -- °F
--% Chance of Precip.
Yesterday
High -- | Low -- °F
Precip. -- in
Pressure 30.23 in
Visibility 10.0 miles
Clouds Scattered Clouds 6000 ft
Scattered Clouds 12000 ft
Windchill 9 °F
Dew Point 2 °F
Humidity 75%
Rainfall 0.00 in
Snow Depth Not available.
7:36 AM 4:57 PM
Waxing Gibbous, 64% visible
METAR K36U 081615Z AUTO 00000KT 10SM SCT060 SCT120 M10/M13 A3023 RMK AO2
Pressure 30.23 in
Visibility 10.0 miles
Clouds Scattered Clouds 6000 ft
Scattered Clouds 12000 ft
Windchill 9 °F
Dew Point 2 °F
Humidity 75%
Rainfall 0.00 in
Snow Depth Not available.
7:36 AM 4:57 PM
Waxing Gibbous, 64% visible
METAR K36U 081615Z AUTO 00000KT 10SM SCT060 SCT120 M10/M13 A3023 RMK AO2

10-Day Weather Forecast

Almanac

Astronomy

Dec. 08, 2016 Rise Set
Actual Time
Civil Twilight
Nautical Twilight
Astronomical Twilight
Moon
Length of Visible Light
Length of Day
Tomorrow will be .
, % of the Moon is Illuminated

Today's Extremes

State Highs State Lows

Community

WunderPhotos

Upload Photos

1,956,274 photos uploaded!

WunderBlog® & News

Nearby

Air Quality

  Air Quality AQ Index Pollutant
Not available.

Snow Depth

Station Depth Elevation

Earthquake Activity

City Distance Mag. Time & Date
Minimum magnitude displayed is 2.5.

Coastal Water Temperatures

Place Temperature

Stations

Nearby Weather Stations

Station Location Temp. Windchill Dew Point Humidity Wind Precip. Elev Updated Type
                   

Watches & Warnings

Winter Storm Warning
Issued: 4:18 AM MST Dec. 8, 2016 – National Weather Service

... Winter Storm Warning remains in effect from 3 PM this
afternoon to 3 PM MST Friday...

* affected area... the Cache Valley... the northern Wasatch front
and the Wasatch Mountain valleys.

* Snow accumulations... 5 to 10 inches with the greatest amounts
near the Idaho border. Locally 1 to 2 feet in the Ogden Valley.

* Timing... snow will develop this afternoon and continue heavy at
times through early afternoon Friday before tapering off.

* Impacts... winter driving conditions can be expected across all
routes beginning this afternoon... and continuing into Friday.
This includes the evening and Friday morning commutes along the
northern Wasatch front.

Precautionary/preparedness actions...

A Winter Storm Warning for heavy snow means that significant
accumulations of snow are expected or occurring. Driving
conditions may be hazardous. Use caution. Keep a winter storm
survival kit in your vehicle in case of an emergency.

For winter Road conditions from the Utah Department of
Transportation... visit
http://www.Udottraffic.Utah.Gov/roadweatherforecast.Aspx or dial
511.